sensor_id;sensor_type;location;lat;lon;timestamp;pressure;altitude;pressure_sealevel;temperature
67515;BMP280;60646;55.802;37.032;2023-07-16T00:02:07;99474.50;;;20.51
67515;BMP280;60646;55.802;37.032;2023-07-16T00:04:33;99477.31;;;20.61
67515;BMP280;60646;55.802;37.032;2023-07-16T00:07:00;99467.63;;;20.50
67515;BMP280;60646;55.802;37.032;2023-07-16T00:09:26;99484.22;;;20.54
67515;BMP280;60646;55.802;37.032;2023-07-16T00:11:51;99470.59;;;20.45
67515;BMP280;60646;55.802;37.032;2023-07-16T00:14:17;99476.75;;;20.45
67515;BMP280;60646;55.802;37.032;2023-07-16T00:16:43;99479.28;;;20.43
67515;BMP280;60646;55.802;37.032;2023-07-16T00:19:14;99499.44;;;20.57
67515;BMP280;60646;55.802;37.032;2023-07-16T00:21:40;99491.91;;;20.48
67515;BMP280;60646;55.802;37.032;2023-07-16T00:24:06;99482.00;;;20.43
67515;BMP280;60646;55.802;37.032;2023-07-16T00:26:32;99499.50;;;20.50
67515;BMP280;60646;55.802;37.032;2023-07-16T00:28:58;99489.44;;;20.43
67515;BMP280;60646;55.802;37.032;2023-07-16T00:31:23;99487.66;;;20.38
67515;BMP280;60646;55.802;37.032;2023-07-16T00:33:49;99492.53;;;20.39
67515;BMP280;60646;55.802;37.032;2023-07-16T00:36:15;99482.63;;;20.34
67515;BMP280;60646;55.802;37.032;2023-07-16T00:38:41;99484.47;;;20.31
67515;BMP280;60646;55.802;37.032;2023-07-16T00:41:08;99489.84;;;20.39
67515;BMP280;60646;55.802;37.032;2023-07-16T00:43:34;99476.22;;;20.22
67515;BMP280;60646;55.802;37.032;2023-07-16T00:46:00;99485.28;;;20.24
67515;BMP280;60646;55.802;37.032;2023-07-16T00:48:26;99479.13;;;20.24
67515;BMP280;60646;55.802;37.032;2023-07-16T00:50:53;99498.34;;;20.35
67515;BMP280;60646;55.802;37.032;2023-07-16T00:53:19;99500.34;;;20.35
67515;BMP280;60646;55.802;37.032;2023-07-16T00:55:45;99497.47;;;20.33
67515;BMP280;60646;55.802;37.032;2023-07-16T00:58:11;99504.19;;;20.32
67515;BMP280;60646;55.802;37.032;2023-07-16T01:00:39;99500.00;;;20.31
67515;BMP280;60646;55.802;37.032;2023-07-16T01:03:07;99505.59;;;20.33
67515;BMP280;60646;55.802;37.032;2023-07-16T01:06:14;99504.66;;;20.38
67515;BMP280;60646;55.802;37.032;2023-07-16T01:08:44;99490.72;;;20.17
67515;BMP280;60646;55.802;37.032;2023-07-16T01:11:10;99496.13;;;20.17
67515;BMP280;60646;55.802;37.032;2023-07-16T01:13:37;99504.47;;;20.19
67515;BMP280;60646;55.802;37.032;2023-07-16T01:16:04;99499.84;;;20.12
67515;BMP280;60646;55.802;37.032;2023-07-16T01:18:30;99513.34;;;20.19
67515;BMP280;60646;55.802;37.032;2023-07-16T01:20:56;99515.47;;;20.21
67515;BMP280;60646;55.802;37.032;2023-07-16T01:26:07;99518.56;;;20.17
67515;BMP280;60646;55.802;37.032;2023-07-16T01:28:53;99517.16;;;20.16
67515;BMP280;60646;55.802;37.032;2023-07-16T01:31:24;99511.44;;;20.05
67515;BMP280;60646;55.802;37.032;2023-07-16T01:33:51;99507.28;;;20.04
67515;BMP280;60646;55.802;37.032;2023-07-16T01:36:18;99508.41;;;20.01
67515;BMP280;60646;55.802;37.032;2023-07-16T01:38:44;99514.00;;;20.03
67515;BMP280;60646;55.802;37.032;2023-07-16T01:41:10;99512.38;;;20.00
67515;BMP280;60646;55.802;37.032;2023-07-16T01:43:36;99516.38;;;19.99
67515;BMP280;60646;55.802;37.032;2023-07-16T01:46:02;99530.63;;;20.07
67515;BMP280;60646;55.802;37.032;2023-07-16T01:48:35;99534.91;;;20.10
67515;BMP280;60646;55.802;37.032;2023-07-16T01:51:03;99524.84;;;20.03
67515;BMP280;60646;55.802;37.032;2023-07-16T01:53:29;99521.63;;;19.97
67515;BMP280;60646;55.802;37.032;2023-07-16T01:55:55;99522.16;;;20.03
67515;BMP280;60646;55.802;37.032;2023-07-16T01:58:21;99516.53;;;20.01
67515;BMP280;60646;55.802;37.032;2023-07-16T02:00:49;99528.38;;;20.13
67515;BMP280;60646;55.802;37.032;2023-07-16T02:03:16;99514.72;;;20.03
67515;BMP280;60646;55.802;37.032;2023-07-16T02:05:42;99525.50;;;20.11
67515;BMP280;60646;55.802;37.032;2023-07-16T02:08:10;99525.13;;;20.14
67515;BMP280;60646;55.802;37.032;2023-07-16T02:10:35;99526.91;;;20.19
67515;BMP280;60646;55.802;37.032;2023-07-16T02:13:01;99527.63;;;20.20
67515;BMP280;60646;55.802;37.032;2023-07-16T02:15:27;99522.53;;;20.24
67515;BMP280;60646;55.802;37.032;2023-07-16T02:17:53;99526.81;;;20.27
67515;BMP280;60646;55.802;37.032;2023-07-16T02:20:19;99518.84;;;20.29
67515;BMP280;60646;55.802;37.032;2023-07-16T02:22:45;99513.91;;;20.35
67515;BMP280;60646;55.802;37.032;2023-07-16T02:25:11;99527.41;;;20.43
67515;BMP280;60646;55.802;37.032;2023-07-16T02:27:38;99512.63;;;20.36
67515;BMP280;60646;55.802;37.032;2023-07-16T02:30:04;99528.47;;;20.47
67515;BMP280;60646;55.802;37.032;2023-07-16T02:32:33;99530.06;;;20.50
67515;BMP280;60646;55.802;37.032;2023-07-16T02:35:01;99529.09;;;20.55
67515;BMP280;60646;55.802;37.032;2023-07-16T02:37:31;99521.16;;;20.57
67515;BMP280;60646;55.802;37.032;2023-07-16T02:39:58;99530.88;;;20.60
67515;BMP280;60646;55.802;37.032;2023-07-16T02:42:24;99532.34;;;20.61
67515;BMP280;60646;55.802;37.032;2023-07-16T02:44:51;99525.59;;;20.62
67515;BMP280;60646;55.802;37.032;2023-07-16T02:47:17;99534.09;;;20.66
67515;BMP280;60646;55.802;37.032;2023-07-16T02:49:43;99555.31;;;20.77
67515;BMP280;60646;55.802;37.032;2023-07-16T02:52:09;99536.22;;;20.68
67515;BMP280;60646;55.802;37.032;2023-07-16T02:54:35;99529.00;;;20.70
67515;BMP280;60646;55.802;37.032;2023-07-16T02:57:02;99549.91;;;20.77
67515;BMP280;60646;55.802;37.032;2023-07-16T02:59:28;99545.72;;;20.76
67515;BMP280;60646;55.802;37.032;2023-07-16T03:01:54;99538.53;;;20.71
67515;BMP280;60646;55.802;37.032;2023-07-16T03:04:38;99539.13;;;20.70
67515;BMP280;60646;55.802;37.032;2023-07-16T03:07:04;99542.25;;;20.66
67515;BMP280;60646;55.802;37.032;2023-07-16T03:09:30;99552.09;;;20.71
67515;BMP280;60646;55.802;37.032;2023-07-16T03:11:55;99548.63;;;20.61
67515;BMP280;60646;55.802;37.032;2023-07-16T03:14:21;99561.06;;;20.64
67515;BMP280;60646;55.802;37.032;2023-07-16T03:16:47;99559.81;;;20.65
67515;BMP280;60646;55.802;37.032;2023-07-16T03:19:14;99560.88;;;20.62
67515;BMP280;60646;55.802;37.032;2023-07-16T03:21:39;99572.09;;;20.66
67515;BMP280;60646;55.802;37.032;2023-07-16T03:24:05;99570.47;;;20.63
67515;BMP280;60646;55.802;37.032;2023-07-16T03:26:31;99558.97;;;20.55
67515;BMP280;60646;55.802;37.032;2023-07-16T03:28:57;99557.53;;;20.54
67515;BMP280;60646;55.802;37.032;2023-07-16T03:31:23;99563.47;;;20.60
67515;BMP280;60646;55.802;37.032;2023-07-16T03:33:50;99570.34;;;20.61
67515;BMP280;60646;55.802;37.032;2023-07-16T03:36:17;99557.38;;;20.52
67515;BMP280;60646;55.802;37.032;2023-07-16T03:38:42;99565.97;;;20.58
67515;BMP280;60646;55.802;37.032;2023-07-16T03:41:08;99564.59;;;20.57
67515;BMP280;60646;55.802;37.032;2023-07-16T03:43:34;99560.97;;;20.55
67515;BMP280;60646;55.802;37.032;2023-07-16T03:46:20;99569.22;;;20.64
67515;BMP280;60646;55.802;37.032;2023-07-16T03:48:46;99585.41;;;20.72
67515;BMP280;60646;55.802;37.032;2023-07-16T03:51:12;99571.91;;;20.64
67515;BMP280;60646;55.802;37.032;2023-07-16T03:53:38;99570.78;;;20.67
67515;BMP280;60646;55.802;37.032;2023-07-16T03:56:04;99558.56;;;20.59
67515;BMP280;60646;55.802;37.032;2023-07-16T03:58:30;99583.94;;;20.78
67515;BMP280;60646;55.802;37.032;2023-07-16T04:00:55;99580.72;;;20.72
67515;BMP280;60646;55.802;37.032;2023-07-16T04:03:22;99589.38;;;20.78
67515;BMP280;60646;55.802;37.032;2023-07-16T04:05:48;99571.44;;;20.75
67515;BMP280;60646;55.802;37.032;2023-07-16T04:08:14;99576.88;;;20.75
67515;BMP280;60646;55.802;37.032;2023-07-16T04:10:40;99596.88;;;20.87
67515;BMP280;60646;55.802;37.032;2023-07-16T04:13:05;99599.91;;;20.91
67515;BMP280;60646;55.802;37.032;2023-07-16T04:15:31;99590.88;;;20.89
67515;BMP280;60646;55.802;37.032;2023-07-16T04:17:57;99581.63;;;20.92
67515;BMP280;60646;55.802;37.032;2023-07-16T04:20:23;99582.66;;;20.96
67515;BMP280;60646;55.802;37.032;2023-07-16T04:22:48;99571.22;;;20.98
67515;BMP280;60646;55.802;37.032;2023-07-16T04:25:14;99598.31;;;21.23
67515;BMP280;60646;55.802;37.032;2023-07-16T04:27:40;99591.75;;;21.26
67515;BMP280;60646;55.802;37.032;2023-07-16T04:30:08;99575.59;;;21.28
67515;BMP280;60646;55.802;37.032;2023-07-16T04:32:34;99582.16;;;21.42
67515;BMP280;60646;55.802;37.032;2023-07-16T04:35:00;99578.59;;;21.49
67515;BMP280;60646;55.802;37.032;2023-07-16T04:37:26;99567.19;;;21.50
67515;BMP280;60646;55.802;37.032;2023-07-16T04:39:52;99573.97;;;21.59
67515;BMP280;60646;55.802;37.032;2023-07-16T04:42:17;99581.63;;;21.70
67515;BMP280;60646;55.802;37.032;2023-07-16T04:44:43;99573.28;;;21.68
67515;BMP280;60646;55.802;37.032;2023-07-16T04:47:09;99572.19;;;21.80
67515;BMP280;60646;55.802;37.032;2023-07-16T04:49:35;99591.91;;;21.98
67515;BMP280;60646;55.802;37.032;2023-07-16T04:52:02;99579.44;;;21.95
67515;BMP280;60646;55.802;37.032;2023-07-16T04:54:46;99577.19;;;22.01
67515;BMP280;60646;55.802;37.032;2023-07-16T04:57:12;99581.63;;;22.06
67515;BMP280;60646;55.802;37.032;2023-07-16T04:59:37;99581.38;;;22.21
67515;BMP280;60646;55.802;37.032;2023-07-16T05:02:05;99577.38;;;22.22
67515;BMP280;60646;55.802;37.032;2023-07-16T05:04:31;99578.81;;;22.23
67515;BMP280;60646;55.802;37.032;2023-07-16T05:06:56;99594.19;;;22.38
67515;BMP280;60646;55.802;37.032;2023-07-16T05:09:22;99577.44;;;22.41
67515;BMP280;60646;55.802;37.032;2023-07-16T05:11:48;99577.72;;;22.45
67515;BMP280;60646;55.802;37.032;2023-07-16T05:14:14;99595.38;;;22.63
67515;BMP280;60646;55.802;37.032;2023-07-16T05:16:39;99576.03;;;22.59
67515;BMP280;60646;55.802;37.032;2023-07-16T05:19:05;99578.50;;;22.65
67515;BMP280;60646;55.802;37.032;2023-07-16T05:21:31;99589.69;;;22.79
67515;BMP280;60646;55.802;37.032;2023-07-16T05:23:57;99595.69;;;22.77
67515;BMP280;60646;55.802;37.032;2023-07-16T05:26:22;99596.97;;;22.86
67515;BMP280;60646;55.802;37.032;2023-07-16T05:28:48;99601.59;;;22.93
67515;BMP280;60646;55.802;37.032;2023-07-16T05:31:14;99604.03;;;22.89
67515;BMP280;60646;55.802;37.032;2023-07-16T05:33:39;99616.22;;;23.07
67515;BMP280;60646;55.802;37.032;2023-07-16T05:36:06;99615.06;;;23.10
67515;BMP280;60646;55.802;37.032;2023-07-16T05:38:32;99605.31;;;23.07
67515;BMP280;60646;55.802;37.032;2023-07-16T05:41:02;99614.75;;;23.25
67515;BMP280;60646;55.802;37.032;2023-07-16T05:43:29;99599.00;;;23.14
67515;BMP280;60646;55.802;37.032;2023-07-16T05:45:55;99597.69;;;23.24
67515;BMP280;60646;55.802;37.032;2023-07-16T05:48:20;99625.66;;;23.44
67515;BMP280;60646;55.802;37.032;2023-07-16T05:50:46;99622.19;;;23.53
67515;BMP280;60646;55.802;37.032;2023-07-16T05:53:12;99601.66;;;23.52
67515;BMP280;60646;55.802;37.032;2023-07-16T05:55:39;99616.09;;;23.74
67515;BMP280;60646;55.802;37.032;2023-07-16T05:58:05;99614.34;;;23.78
67515;BMP280;60646;55.802;37.032;2023-07-16T06:00:31;99613.75;;;23.89
67515;BMP280;60646;55.802;37.032;2023-07-16T06:02:58;99608.84;;;23.97
67515;BMP280;60646;55.802;37.032;2023-07-16T06:05:23;99611.06;;;24.10
67515;BMP280;60646;55.802;37.032;2023-07-16T06:07:54;99612.88;;;24.27
67515;BMP280;60646;55.802;37.032;2023-07-16T06:10:20;99594.78;;;24.22
67515;BMP280;60646;55.802;37.032;2023-07-16T06:12:48;99622.97;;;24.45
67515;BMP280;60646;55.802;37.032;2023-07-16T06:15:14;99609.41;;;24.47
67515;BMP280;60646;55.802;37.032;2023-07-16T06:17:40;99597.06;;;24.46
67515;BMP280;60646;55.802;37.032;2023-07-16T06:20:07;99611.47;;;24.68
67515;BMP280;60646;55.802;37.032;2023-07-16T06:22:33;99621.88;;;24.81
67515;BMP280;60646;55.802;37.032;2023-07-16T06:24:59;99616.03;;;24.87
67515;BMP280;60646;55.802;37.032;2023-07-16T06:27:25;99613.44;;;24.89
67515;BMP280;60646;55.802;37.032;2023-07-16T06:29:51;99603.94;;;24.90
67515;BMP280;60646;55.802;37.032;2023-07-16T06:32:17;99594.72;;;24.95
67515;BMP280;60646;55.802;37.032;2023-07-16T06:34:43;99600.66;;;25.03
67515;BMP280;60646;55.802;37.032;2023-07-16T06:37:09;99599.47;;;25.06
67515;BMP280;60646;55.802;37.032;2023-07-16T06:39:35;99603.09;;;25.20
67515;BMP280;60646;55.802;37.032;2023-07-16T06:42:01;99595.59;;;25.20
67515;BMP280;60646;55.802;37.032;2023-07-16T06:44:27;99590.28;;;25.22
67515;BMP280;60646;55.802;37.032;2023-07-16T06:46:52;99598.34;;;25.32
67515;BMP280;60646;55.802;37.032;2023-07-16T06:49:19;99607.66;;;25.38
67515;BMP280;60646;55.802;37.032;2023-07-16T06:51:44;99599.09;;;25.44
67515;BMP280;60646;55.802;37.032;2023-07-16T06:54:10;99596.84;;;25.52
67515;BMP280;60646;55.802;37.032;2023-07-16T06:56:36;99590.78;;;25.54
67515;BMP280;60646;55.802;37.032;2023-07-16T06:59:02;99609.94;;;25.65
67515;BMP280;60646;55.802;37.032;2023-07-16T07:01:28;99602.00;;;25.69
67515;BMP280;60646;55.802;37.032;2023-07-16T07:03:54;99582.22;;;25.59
67515;BMP280;60646;55.802;37.032;2023-07-16T07:06:20;99591.16;;;25.71
67515;BMP280;60646;55.802;37.032;2023-07-16T07:08:47;99584.25;;;25.70
67515;BMP280;60646;55.802;37.032;2023-07-16T07:11:12;99605.91;;;25.89
67515;BMP280;60646;55.802;37.032;2023-07-16T07:13:39;99591.63;;;25.79
67515;BMP280;60646;55.802;37.032;2023-07-16T07:16:04;99587.47;;;25.78
67515;BMP280;60646;55.802;37.032;2023-07-16T07:18:30;99589.25;;;25.85
67515;BMP280;60646;55.802;37.032;2023-07-16T07:20:56;99597.69;;;25.89
67515;BMP280;60646;55.802;37.032;2023-07-16T07:23:22;99592.22;;;25.89
67515;BMP280;60646;55.802;37.032;2023-07-16T07:25:49;99600.34;;;25.99
67515;BMP280;60646;55.802;37.032;2023-07-16T07:28:15;99596.97;;;26.00
67515;BMP280;60646;55.802;37.032;2023-07-16T07:30:41;99592.78;;;25.99
67515;BMP280;60646;55.802;37.032;2023-07-16T07:33:07;99601.97;;;26.04
67515;BMP280;60646;55.802;37.032;2023-07-16T07:35:33;99598.41;;;26.01
67515;BMP280;60646;55.802;37.032;2023-07-16T07:37:58;99601.00;;;25.99
67515;BMP280;60646;55.802;37.032;2023-07-16T07:40:26;99597.59;;;25.99
67515;BMP280;60646;55.802;37.032;2023-07-16T07:42:52;99600.91;;;25.97
67515;BMP280;60646;55.802;37.032;2023-07-16T07:45:18;99611.94;;;25.99
67515;BMP280;60646;55.802;37.032;2023-07-16T07:47:43;99596.63;;;25.94
67515;BMP280;60646;55.802;37.032;2023-07-16T07:50:09;99599.25;;;25.92
67515;BMP280;60646;55.802;37.032;2023-07-16T07:52:35;99580.34;;;25.85
67515;BMP280;60646;55.802;37.032;2023-07-16T07:55:01;99592.69;;;25.97
67515;BMP280;60646;55.802;37.032;2023-07-16T07:57:29;99594.13;;;25.98
67515;BMP280;60646;55.802;37.032;2023-07-16T07:59:55;99598.13;;;26.09
67515;BMP280;60646;55.802;37.032;2023-07-16T08:02:24;99604.78;;;26.17
67515;BMP280;60646;55.802;37.032;2023-07-16T08:04:51;99592.75;;;26.22
67515;BMP280;60646;55.802;37.032;2023-07-16T08:07:17;99584.69;;;26.24
67515;BMP280;60646;55.802;37.032;2023-07-16T08:09:43;99596.22;;;26.35
67515;BMP280;60646;55.802;37.032;2023-07-16T08:12:09;99580.50;;;26.23
67515;BMP280;60646;55.802;37.032;2023-07-16T08:15:01;99616.28;;;26.51
67515;BMP280;60646;55.802;37.032;2023-07-16T08:17:27;99599.28;;;26.29
67515;BMP280;60646;55.802;37.032;2023-07-16T08:19:53;99611.22;;;26.33
67515;BMP280;60646;55.802;37.032;2023-07-16T08:22:18;99601.91;;;26.27
67515;BMP280;60646;55.802;37.032;2023-07-16T08:24:44;99593.84;;;26.17
67515;BMP280;60646;55.802;37.032;2023-07-16T08:27:10;99594.09;;;26.21
67515;BMP280;60646;55.802;37.032;2023-07-16T08:29:36;99601.94;;;26.15
67515;BMP280;60646;55.802;37.032;2023-07-16T08:32:02;99589.44;;;26.12
67515;BMP280;60646;55.802;37.032;2023-07-16T08:34:29;99615.00;;;26.28
67515;BMP280;60646;55.802;37.032;2023-07-16T08:36:55;99600.97;;;26.22
67515;BMP280;60646;55.802;37.032;2023-07-16T08:39:21;99603.72;;;26.22
67515;BMP280;60646;55.802;37.032;2023-07-16T08:41:48;99601.91;;;26.27
67515;BMP280;60646;55.802;37.032;2023-07-16T08:44:13;99610.50;;;26.33
67515;BMP280;60646;55.802;37.032;2023-07-16T08:46:42;99600.50;;;26.26
67515;BMP280;60646;55.802;37.032;2023-07-16T08:49:11;99597.78;;;26.26
67515;BMP280;60646;55.802;37.032;2023-07-16T08:51:37;99608.84;;;26.28
67515;BMP280;60646;55.802;37.032;2023-07-16T08:54:04;99604.06;;;26.28
67515;BMP280;60646;55.802;37.032;2023-07-16T08:56:30;99604.06;;;26.28
67515;BMP280;60646;55.802;37.032;2023-07-16T08:58:57;99610.00;;;26.37
67515;BMP280;60646;55.802;37.032;2023-07-16T09:01:23;99605.59;;;26.31
67515;BMP280;60646;55.802;37.032;2023-07-16T09:03:49;99601.41;;;26.42
67515;BMP280;60646;55.802;37.032;2023-07-16T09:06:15;99597.47;;;26.45
67515;BMP280;60646;55.802;37.032;2023-07-16T09:08:41;99588.53;;;26.45
67515;BMP280;60646;55.802;37.032;2023-07-16T09:11:11;99610.06;;;26.62
67515;BMP280;60646;55.802;37.032;2023-07-16T09:13:43;99614.41;;;26.78
67515;BMP280;60646;55.802;37.032;2023-07-16T09:16:09;99608.72;;;26.63
67515;BMP280;60646;55.802;37.032;2023-07-16T09:18:39;99602.94;;;26.57
67515;BMP280;60646;55.802;37.032;2023-07-16T09:21:06;99611.59;;;26.65
67515;BMP280;60646;55.802;37.032;2023-07-16T09:23:32;99598.88;;;26.58
67515;BMP280;60646;55.802;37.032;2023-07-16T09:25:58;99604.09;;;26.65
67515;BMP280;60646;55.802;37.032;2023-07-16T09:28:24;99614.97;;;26.77
67515;BMP280;60646;55.802;37.032;2023-07-16T09:30:51;99624.88;;;26.82
67515;BMP280;60646;55.802;37.032;2023-07-16T09:33:19;99605.84;;;26.72
67515;BMP280;60646;55.802;37.032;2023-07-16T09:35:50;99625.28;;;26.90
67515;BMP280;60646;55.802;37.032;2023-07-16T09:38:16;99608.41;;;26.82
67515;BMP280;60646;55.802;37.032;2023-07-16T09:40:43;99628.19;;;26.92
67515;BMP280;60646;55.802;37.032;2023-07-16T09:43:11;99615.53;;;26.87
67515;BMP280;60646;55.802;37.032;2023-07-16T09:45:37;99617.22;;;26.92
67515;BMP280;60646;55.802;37.032;2023-07-16T09:48:04;99604.56;;;26.87
67515;BMP280;60646;55.802;37.032;2023-07-16T09:50:36;99619.56;;;26.97
67515;BMP280;60646;55.802;37.032;2023-07-16T09:53:04;99601.97;;;26.89
67515;BMP280;60646;55.802;37.032;2023-07-16T09:55:31;99612.16;;;27.00
67515;BMP280;60646;55.802;37.032;2023-07-16T09:58:00;99605.53;;;26.91
67515;BMP280;60646;55.802;37.032;2023-07-16T10:00:27;99603.34;;;27.01
67515;BMP280;60646;55.802;37.032;2023-07-16T10:02:54;99603.13;;;26.97
67515;BMP280;60646;55.802;37.032;2023-07-16T10:07:52;99613.03;;;27.16
67515;BMP280;60646;55.802;37.032;2023-07-16T10:10:21;99598.97;;;27.10
67515;BMP280;60646;55.802;37.032;2023-07-16T10:12:58;99606.94;;;27.31
67515;BMP280;60646;55.802;37.032;2023-07-16T10:15:28;99614.59;;;27.33
67515;BMP280;60646;55.802;37.032;2023-07-16T10:17:55;99605.97;;;27.38
67515;BMP280;60646;55.802;37.032;2023-07-16T10:20:51;99609.44;;;27.52
67515;BMP280;60646;55.802;37.032;2023-07-16T10:23:20;99595.72;;;27.39
67515;BMP280;60646;55.802;37.032;2023-07-16T10:25:59;99615.22;;;27.58
67515;BMP280;60646;55.802;37.032;2023-07-16T10:28:25;99602.31;;;27.47
67515;BMP280;60646;55.802;37.032;2023-07-16T10:30:52;99611.28;;;27.61
67515;BMP280;60646;55.802;37.032;2023-07-16T10:33:18;99618.88;;;27.63
67515;BMP280;60646;55.802;37.032;2023-07-16T10:37:00;99614.63;;;27.87
67515;BMP280;60646;55.802;37.032;2023-07-16T10:42:48;99616.84;;;28.04
67515;BMP280;60646;55.802;37.032;2023-07-16T10:45:15;99601.94;;;27.93
67515;BMP280;60646;55.802;37.032;2023-07-16T10:47:52;99611.69;;;27.96
67515;BMP280;60646;55.802;37.032;2023-07-16T10:50:19;99618.78;;;28.01
67515;BMP280;60646;55.802;37.032;2023-07-16T10:52:50;99606.41;;;28.00
67515;BMP280;60646;55.802;37.032;2023-07-16T10:55:17;99596.34;;;27.91
67515;BMP280;60646;55.802;37.032;2023-07-16T10:57:47;99592.66;;;27.87
67515;BMP280;60646;55.802;37.032;2023-07-16T11:00:15;99597.94;;;27.96
67515;BMP280;60646;55.802;37.032;2023-07-16T11:02:41;99594.09;;;27.88
67515;BMP280;60646;55.802;37.032;2023-07-16T11:05:10;99597.63;;;27.90
67515;BMP280;60646;55.802;37.032;2023-07-16T11:07:37;99591.94;;;27.86
67515;BMP280;60646;55.802;37.032;2023-07-16T11:10:02;99585.22;;;27.89
67515;BMP280;60646;55.802;37.032;2023-07-16T11:12:29;99606.50;;;28.02
67515;BMP280;60646;55.802;37.032;2023-07-16T11:14:56;99585.94;;;27.90
67515;BMP280;60646;55.802;37.032;2023-07-16T11:17:23;99609.63;;;28.10
67515;BMP280;60646;55.802;37.032;2023-07-16T11:19:51;99609.63;;;28.10
67515;BMP280;60646;55.802;37.032;2023-07-16T11:22:18;99594.19;;;28.03
67515;BMP280;60646;55.802;37.032;2023-07-16T11:24:45;99613.31;;;28.15
67515;BMP280;60646;55.802;37.032;2023-07-16T11:27:16;99607.81;;;28.15
67515;BMP280;60646;55.802;37.032;2023-07-16T11:29:50;99608.72;;;28.06
67515;BMP280;60646;55.802;37.032;2023-07-16T11:32:36;99607.50;;;28.09
67515;BMP280;60646;55.802;37.032;2023-07-16T11:35:04;99601.09;;;28.04
67515;BMP280;60646;55.802;37.032;2023-07-16T11:37:34;99603.75;;;28.02
67515;BMP280;60646;55.802;37.032;2023-07-16T11:40:05;99609.09;;;28.14
67515;BMP280;60646;55.802;37.032;2023-07-16T11:42:35;99605.97;;;28.06
67515;BMP280;60646;55.802;37.032;2023-07-16T11:45:03;99615.31;;;28.14
67515;BMP280;60646;55.802;37.032;2023-07-16T11:47:34;99603.53;;;27.98
67515;BMP280;60646;55.802;37.032;2023-07-16T11:50:00;99606.91;;;27.97
67515;BMP280;60646;55.802;37.032;2023-07-16T11:52:28;99610.44;;;27.99
67515;BMP280;60646;55.802;37.032;2023-07-16T11:54:57;99613.81;;;27.98
67515;BMP280;60646;55.802;37.032;2023-07-16T11:57:26;99617.56;;;28.18
67515;BMP280;60646;55.802;37.032;2023-07-16T11:59:51;99593.75;;;27.95
67515;BMP280;60646;55.802;37.032;2023-07-16T12:02:17;99603.81;;;28.04
67515;BMP280;60646;55.802;37.032;2023-07-16T12:04:43;99594.34;;;28.07
67515;BMP280;60646;55.802;37.032;2023-07-16T12:09:58;99584.69;;;28.20
67515;BMP280;60646;55.802;37.032;2023-07-16T12:12:24;99586.56;;;28.31
67515;BMP280;60646;55.802;37.032;2023-07-16T12:14:50;99601.44;;;28.40
67515;BMP280;60646;55.802;37.032;2023-07-16T12:17:15;99594.06;;;28.44
67515;BMP280;60646;55.802;37.032;2023-07-16T12:19:41;99591.03;;;28.52
67515;BMP280;60646;55.802;37.032;2023-07-16T12:22:07;99599.50;;;28.58
67515;BMP280;60646;55.802;37.032;2023-07-16T12:24:34;99606.06;;;28.51
67515;BMP280;60646;55.802;37.032;2023-07-16T12:26:59;99586.63;;;28.47
67515;BMP280;60646;55.802;37.032;2023-07-16T12:29:25;99595.69;;;28.49
67515;BMP280;60646;55.802;37.032;2023-07-16T12:31:51;99593.47;;;28.46
67515;BMP280;60646;55.802;37.032;2023-07-16T12:34:17;99591.84;;;28.41
67515;BMP280;60646;55.802;37.032;2023-07-16T12:36:43;99578.44;;;28.33
67515;BMP280;60646;55.802;37.032;2023-07-16T12:39:08;99590.44;;;28.40
67515;BMP280;60646;55.802;37.032;2023-07-16T12:41:34;99589.22;;;28.43
67515;BMP280;60646;55.802;37.032;2023-07-16T12:44:00;99593.34;;;28.44
67515;BMP280;60646;55.802;37.032;2023-07-16T12:46:25;99594.16;;;28.46
67515;BMP280;60646;55.802;37.032;2023-07-16T12:48:51;99580.84;;;28.41
67515;BMP280;60646;55.802;37.032;2023-07-16T12:51:17;99593.47;;;28.46
67515;BMP280;60646;55.802;37.032;2023-07-16T12:53:43;99596.09;;;28.44
67515;BMP280;60646;55.802;37.032;2023-07-16T12:56:09;99584.38;;;28.43
67515;BMP280;60646;55.802;37.032;2023-07-16T12:58:35;99596.09;;;28.44
67515;BMP280;60646;55.802;37.032;2023-07-16T13:01:01;99595.25;;;28.55
67515;BMP280;60646;55.802;37.032;2023-07-16T13:03:27;99583.88;;;28.47
67515;BMP280;60646;55.802;37.032;2023-07-16T13:05:54;99580.03;;;28.52
67515;BMP280;60646;55.802;37.032;2023-07-16T13:08:19;99578.16;;;28.56
67515;BMP280;60646;55.802;37.032;2023-07-16T13:10:45;99586.59;;;28.60
67515;BMP280;60646;55.802;37.032;2023-07-16T13:13:11;99581.78;;;28.61
67515;BMP280;60646;55.802;37.032;2023-07-16T13:15:37;99591.16;;;28.69
67515;BMP280;60646;55.802;37.032;2023-07-16T13:18:03;99586.25;;;28.68
67515;BMP280;60646;55.802;37.032;2023-07-16T13:20:29;99589.28;;;28.74
67515;BMP280;60646;55.802;37.032;2023-07-16T13:22:55;99594.78;;;28.74
67515;BMP280;60646;55.802;37.032;2023-07-16T13:25:22;99595.03;;;28.80
67515;BMP280;60646;55.802;37.032;2023-07-16T13:27:48;99594.44;;;28.81
67515;BMP280;60646;55.802;37.032;2023-07-16T13:30:14;99598.63;;;28.98
67515;BMP280;60646;55.802;37.032;2023-07-16T13:32:40;99596.03;;;29.02
67515;BMP280;60646;55.802;37.032;2023-07-16T13:35:06;99594.19;;;29.06
67515;BMP280;60646;55.802;37.032;2023-07-16T13:37:32;99589.69;;;29.13
67515;BMP280;60646;55.802;37.032;2023-07-16T13:39:58;99597.50;;;29.18
67515;BMP280;60646;55.802;37.032;2023-07-16T13:42:24;99583.81;;;29.20
67515;BMP280;60646;55.802;37.032;2023-07-16T13:44:50;99583.28;;;29.24
67515;BMP280;60646;55.802;37.032;2023-07-16T13:47:16;99579.56;;;29.33
67515;BMP280;60646;55.802;37.032;2023-07-16T13:49:41;99586.03;;;29.39
67515;BMP280;60646;55.802;37.032;2023-07-16T13:52:07;99588.22;;;29.43
67515;BMP280;60646;55.802;37.032;2023-07-16T13:54:33;99585.66;;;29.47
67515;BMP280;60646;55.802;37.032;2023-07-16T13:56:59;99588.34;;;29.45
67515;BMP280;60646;55.802;37.032;2023-07-16T13:59:25;99585.59;;;29.45
67515;BMP280;60646;55.802;37.032;2023-07-16T14:01:59;99591.75;;;29.61
67515;BMP280;60646;55.802;37.032;2023-07-16T14:04:27;99591.56;;;29.57
67515;BMP280;60646;55.802;37.032;2023-07-16T14:06:53;99583.25;;;29.55
67515;BMP280;60646;55.802;37.032;2023-07-16T14:09:20;99596.81;;;29.67